Time;durP1;ratioP1;P1;durP2;ratioP2;P2;SDS_P1;SDS_P2;PMS_P1;PMS_P2;Temp;Humidity;BMP_temperature;BMP_pressure;BME280_temperature;BME280_humidity;BME280_pressure;Samples;Min_cycle;Max_cycle;Signal;HPM_P1;HPM_P2
2022/09/01 00:01:49;;;;;;;13.02;11.63;;;;;;;17.75;69.50;96954.00;4901397;29;20067;-82
2022/09/01 00:04:21;;;;;;;12.30;11.10;;;;;;;17.73;69.40;96956.03;4901376;29;20084;-82
2022/09/01 00:06:50;;;;;;;;;;;;;;;17.75;69.58;96948.72;4901868;29;20057;-82
2022/09/01 00:09:19;;;;;;;10.80;9.68;;;;;;;17.76;69.55;96953.00;4901287;29;19927;-82
2022/09/01 00:11:51;;;;;;;12.38;10.38;;;;;;;17.77;69.71;96952.75;4900803;29;20104;-82
2022/09/01 00:14:20;;;;;;;13.07;11.07;;;;;;;17.75;69.41;96949.53;4901104;29;20108;-82
2022/09/01 00:16:56;;;;;;;12.77;11.10;;;;;;;17.69;69.49;96956.50;4901124;29;20075;-82
2022/09/01 00:19:24;;;;;;;12.32;11.02;;;;;;;17.62;69.56;96955.75;4901014;29;20053;-82
2022/09/01 00:21:53;;;;;;;17.48;12.77;;;;;;;17.53;69.97;96951.75;4900931;29;20060;-82
2022/09/01 00:24:21;;;;;;;14.52;12.30;;;;;;;17.43;70.43;96939.09;4900692;29;20076;-82
2022/09/01 00:26:49;;;;;;;13.18;11.40;;;;;;;17.35;70.49;96947.25;4912095;29;20059;-82
2022/09/01 00:29:16;;;;;;;13.27;11.63;;;;;;;17.28;70.84;96942.03;4923804;29;20503;-82
2022/09/01 00:31:44;;;;;;;13.85;12.35;;;;;;;17.22;71.15;96940.25;4919024;29;20064;-82
2022/09/01 00:34:11;;;;;;;14.02;11.60;;;;;;;17.20;71.27;96941.50;4903160;29;20143;-82
2022/09/01 00:36:39;;;;;;;13.60;12.20;;;;;;;17.16;71.46;96948.22;4924847;29;20056;-82
2022/09/01 00:39:09;;;;;;;14.93;12.45;;;;;;;17.10;71.77;96942.00;4924713;29;20065;-81
2022/09/01 00:41:41;;;;;;;15.00;12.95;;;;;;;17.03;72.31;96936.78;4908741;29;20464;-82
2022/09/01 00:44:12;;;;;;;16.48;13.77;;;;;;;16.97;72.25;96932.38;4904450;29;20049;-82
2022/09/01 00:46:42;;;;;;;15.85;13.60;;;;;;;16.93;72.71;96935.66;4902690;29;20060;-82
2022/09/01 00:49:28;;;;;;;17.35;13.65;;;;;;;16.87;73.22;96932.03;4901323;29;20056;-82
2022/09/01 00:52:02;;;;;;;16.08;14.27;;;;;;;16.86;73.22;96930.41;4901012;29;20116;-82
2022/09/01 00:54:35;;;;;;;16.23;14.40;;;;;;;16.87;73.38;96927.56;4901429;29;20063;-82
2022/09/01 00:57:04;;;;;;;17.42;14.18;;;;;;;16.89;73.19;96936.06;4900562;29;20575;-82
2022/09/01 00:59:32;;;;;;;16.65;13.60;;;;;;;16.93;72.95;96930.38;4900719;29;20091;-82
2022/09/01 01:02:00;;;;;;;18.60;15.27;;;;;;;16.96;73.17;96929.94;4900045;29;20423;-82
2022/09/01 01:04:29;;;;;;;20.13;16.50;;;;;;;16.97;73.04;96926.28;4900611;29;20139;-82
2022/09/01 01:07:00;;;;;;;19.35;15.55;;;;;;;16.97;73.30;96926.28;4900801;29;20060;-82
2022/09/01 01:09:32;;;;;;;20.50;17.25;;;;;;;16.97;73.18;96921.03;4899664;29;20140;-82
2022/09/01 01:12:03;;;;;;;21.10;16.45;;;;;;;16.94;73.06;96921.44;4899992;29;20056;-82
2022/09/01 01:14:31;;;;;;;19.85;15.32;;;;;;;16.92;73.03;96924.28;4899864;29;20056;-82
2022/09/01 01:17:00;;;;;;;20.00;15.98;;;;;;;16.88;73.22;96928.38;4900329;29;20063;-82
2022/09/01 01:25:21;;;;;;;19.10;15.48;;;;;;;16.80;73.19;96918.91;4900078;29;20057;-82
2022/09/01 01:27:48;;;;;;;18.45;14.90;;;;;;;16.79;73.29;96919.91;4899774;29;20088;-82
2022/09/01 01:30:17;;;;;;;22.92;16.63;;;;;;;16.82;73.16;96924.75;4899579;29;20131;-82
2022/09/01 01:32:46;;;;;;;17.02;14.10;;;;;;;16.85;73.28;96924.31;4899872;29;20135;-82
2022/09/01 01:35:16;;;;;;;15.20;12.77;;;;;;;16.92;73.26;96926.09;4899765;29;20104;-82
2022/09/01 01:37:47;;;;;;;15.30;12.82;;;;;;;16.98;73.29;96918.16;4900236;29;20131;-82
2022/09/01 01:40:16;;;;;;;16.77;13.82;;;;;;;17.03;72.82;96914.88;4899726;29;20080;-82
2022/09/01 01:42:47;;;;;;;19.30;15.38;;;;;;;17.07;72.50;96914.22;4899529;29;20076;-82
2022/09/01 01:45:18;;;;;;;18.58;14.90;;;;;;;17.09;72.40;96914.00;4899717;29;20088;-82
2022/09/01 01:47:52;;;;;;;17.08;14.68;;;;;;;17.11;72.36;96922.50;4900069;29;20440;-82
2022/09/01 01:50:20;;;;;;;17.02;13.43;;;;;;;17.14;72.61;96916.81;4899533;29;20056;-82
2022/09/01 01:52:48;;;;;;;15.65;13.63;;;;;;;17.15;72.27;96915.78;4899463;29;20492;-82
2022/09/01 01:55:26;;;;;;;16.45;13.43;;;;;;;17.17;72.19;96916.38;4899727;29;20064;-82
2022/09/01 01:57:55;;;;;;;15.73;13.77;;;;;;;17.18;72.79;96918.00;4899299;29;20053;-82
2022/09/01 02:00:26;;;;;;;15.75;13.45;;;;;;;17.20;72.08;96915.94;4898870;29;20589;-82
2022/09/01 02:02:58;;;;;;;14.30;12.65;;;;;;;17.22;72.18;96919.19;4899326;29;20052;-82
2022/09/01 02:05:28;;;;;;;15.13;12.75;;;;;;;17.24;72.59;96919.75;4898989;29;20048;-82
2022/09/01 02:08:06;;;;;;;17.30;14.35;;;;;;;17.27;72.63;96919.34;4898911;29;20147;-82
2022/09/01 02:10:39;;;;;;;13.98;12.45;;;;;;;17.28;72.67;96912.25;4898710;29;20507;-82
2022/09/01 02:24:00;;;;;;;15.23;13.13;;;;;;;17.19;71.87;96905.63;5443164;23;20108;-86
2022/09/01 02:26:30;;;;;;;17.15;14.82;;;;;;;17.17;71.90;96903.22;4914835;29;20078;-86
2022/09/01 02:29:00;;;;;;;19.75;15.38;;;;;;;17.15;71.72;96907.09;4915132;29;20052;-87
2022/09/01 02:31:28;;;;;;;18.13;14.75;;;;;;;17.10;71.65;96899.84;4914840;29;20431;-85
2022/09/01 02:33:56;;;;;;;19.35;14.57;;;;;;;17.04;71.78;96892.78;4914018;29;20587;-85
2022/09/01 02:36:24;;;;;;;17.73;14.60;;;;;;;17.00;71.95;96894.22;4914328;29;20081;-87
2022/09/01 02:38:53;;;;;;;19.05;14.70;;;;;;;16.97;72.22;96899.94;4913351;29;20052;-85
2022/09/01 02:41:27;;;;;;;21.13;15.90;;;;;;;16.96;72.42;96898.31;4913194;29;20132;-84
2022/09/01 02:43:55;;;;;;;;;;;;;;;16.98;72.30;96896.28;4912979;29;20587;-86
2022/09/01 02:46:23;;;;;;;19.02;15.43;;;;;;;16.96;72.28;96906.22;4912480;29;19924;-88
2022/09/01 02:48:52;;;;;;;16.08;14.05;;;;;;;16.95;72.24;96896.72;4911775;29;20586;-86
2022/09/01 02:51:24;;;;;;;17.80;14.65;;;;;;;16.92;72.21;96900.56;4913237;29;20052;-88
2022/09/01 02:53:52;;;;;;;;;;;;;;;16.95;72.38;96907.25;4915167;29;20062;-88
2022/09/01 02:56:22;;;;;;;17.52;13.60;;;;;;;16.93;72.34;96898.75;4914451;29;19923;-86
2022/09/01 02:58:54;;;;;;;17.60;13.80;;;;;;;16.96;72.44;96895.69;4913595;29;20072;-83
2022/09/01 03:01:24;;;;;;;16.80;13.45;;;;;;;16.98;72.09;96899.72;4913121;29;20092;-85
2022/09/01 03:03:54;;;;;;;14.40;12.00;;;;;;;17.04;72.13;96908.59;4912321;29;20047;-83
2022/09/01 03:06:23;;;;;;;17.17;13.30;;;;;;;17.05;71.95;96902.28;4910781;29;20061;-86
2022/09/01 03:08:52;;;;;;;16.10;13.23;;;;;;;17.09;72.00;96908.75;4910354;29;20100;-83
2022/09/01 03:11:23;;;;;;;12.68;11.38;;;;;;;17.14;72.67;96901.00;4911185;29;20083;-83
2022/09/01 03:13:52;;;;;;;12.82;11.48;;;;;;;17.22;73.47;96907.81;4910482;29;20059;-85
2022/09/01 03:16:22;;;;;;;14.48;12.32;;;;;;;17.27;72.20;96910.63;4908615;29;20083;-84
2022/09/01 03:18:50;;;;;;;12.30;11.00;;;;;;;17.33;73.44;96914.22;4907117;29;20500;-80
2022/09/01 03:21:18;;;;;;;15.25;12.15;;;;;;;17.40;73.71;96904.41;4907455;29;20068;-81
2022/09/01 03:23:47;;;;;;;15.30;12.02;;;;;;;17.44;72.96;96895.06;4905638;29;20091;-85
2022/09/01 03:26:18;;;;;;;16.33;13.13;;;;;;;17.46;72.59;96898.28;4905415;29;20077;-82
2022/09/01 03:28:46;;;;;;;16.63;13.70;;;;;;;17.47;71.59;96905.16;4905797;29;20053;-80
2022/09/01 03:31:17;;;;;;;13.93;11.43;;;;;;;17.50;72.24;96899.47;4904733;29;20068;-81
2022/09/01 03:33:45;;;;;;;13.02;11.15;;;;;;;17.52;72.51;96902.69;4904068;29;20124;-83
2022/09/01 03:36:17;;;;;;;13.93;12.07;;;;;;;17.55;72.59;96896.97;4904910;29;20052;-80
2022/09/01 03:38:47;;;;;;;14.63;12.73;;;;;;;17.57;72.01;96905.47;4904256;29;20057;-80
2022/09/01 03:41:16;;;;;;;14.07;12.38;;;;;;;17.58;72.52;96899.19;4903335;29;20048;-80
2022/09/01 03:43:45;;;;;;;16.40;12.65;;;;;;;17.62;72.45;96902.16;4903500;29;20048;-80
2022/09/01 03:46:20;;;;;;;15.15;12.95;;;;;;;17.65;73.27;96899.91;4903575;29;20058;-81
2022/09/01 03:48:50;;;;;;;14.20;12.50;;;;;;;17.65;71.63;96899.13;4904865;29;20063;-81
2022/09/01 03:51:20;;;;;;;15.75;12.65;;;;;;;17.60;70.88;96897.13;4913936;29;20053;-86
2022/09/01 03:53:49;;;;;;;17.08;13.75;;;;;;;17.56;70.88;96900.41;4913275;29;20053;-86
2022/09/01 03:56:16;;;;;;;14.70;12.10;;;;;;;17.54;70.83;96897.19;4912941;29;20080;-85
2022/09/01 03:58:45;;;;;;;15.63;13.93;;;;;;;17.52;70.87;96899.25;4912871;29;20136;-86
2022/09/01 04:01:15;;;;;;;15.75;13.15;;;;;;;17.50;71.03;96902.09;4912236;29;20045;-85
2022/09/01 04:03:47;;;;;;;17.63;13.75;;;;;;;17.50;70.84;96902.09;4910490;29;20056;-85
2022/09/01 04:06:18;;;;;;;14.50;12.35;;;;;;;17.49;71.32;96896.03;4911332;29;20079;-86
2022/09/01 04:08:46;;;;;;;14.50;12.52;;;;;;;17.50;71.14;96894.97;4910271;29;20100;-87
2022/09/01 04:11:22;;;;;;;16.02;12.88;;;;;;;17.52;70.92;96893.97;4911145;29;20064;-88
2022/09/01 04:13:51;;;;;;;17.05;12.48;;;;;;;17.50;70.73;96897.63;4911497;29;20092;-85
2022/09/01 04:19:18;;;;;;;13.35;11.00;;;;;;;17.51;70.96;96895.78;4912841;29;20052;-86
2022/09/01 04:21:49;;;;;;;14.65;11.93;;;;;;;17.53;70.73;96893.72;4913020;29;20130;-86
2022/09/01 04:24:17;;;;;;;15.68;11.98;;;;;;;17.56;71.21;96893.31;4912497;29;20076;-87
2022/09/01 04:26:47;;;;;;;15.50;12.60;;;;;;;17.60;70.73;96891.84;4913093;29;20059;-87
2022/09/01 04:29:18;;;;;;;15.63;12.93;;;;;;;17.59;70.24;96898.16;4912345;29;20060;-86
2022/09/01 04:31:52;;;;;;;14.70;11.90;;;;;;;17.58;70.31;96896.53;4912377;29;20059;-86
2022/09/01 04:34:21;;;;;;;17.42;13.85;;;;;;;17.57;70.34;96894.13;4912536;29;20052;-85
2022/09/01 04:36:54;;;;;;;15.57;12.93;;;;;;;17.54;70.35;96895.38;4911988;29;20068;-83
2022/09/01 04:39:23;;;;;;;13.63;11.82;;;;;;;17.57;70.54;96899.38;4911325;29;20096;-86
2022/09/01 04:41:51;;;;;;;15.13;12.20;;;;;;;17.61;70.81;96896.09;4910812;29;20496;-87
2022/09/01 04:44:19;;;;;;;14.68;11.45;;;;;;;17.65;70.73;96897.28;4911572;29;20049;-85
2022/09/01 04:46:49;;;;;;;13.23;11.32;;;;;;;17.71;70.71;96900.88;4914337;29;20052;-82
2022/09/01 04:49:21;;;;;;;13.20;11.10;;;;;;;17.75;71.08;96907.31;4914637;29;20056;-83
2022/09/01 04:51:50;;;;;;;15.65;13.15;;;;;;;17.74;70.13;96899.63;4913707;29;20053;-84
2022/09/01 04:54:23;;;;;;;16.20;13.15;;;;;;;17.75;70.01;96911.78;4914444;29;20071;-86
2022/09/01 04:56:53;;;;;;;14.73;12.50;;;;;;;17.74;69.92;96900.44;4914559;29;20055;-87
2022/09/01 04:59:25;;;;;;;15.32;12.52;;;;;;;17.73;69.99;96898.78;4915016;29;20396;-87
2022/09/01 05:01:56;;;;;;;16.02;12.65;;;;;;;17.74;69.74;96902.25;4912484;29;20415;-84
2022/09/01 05:04:26;;;;;;;16.63;12.73;;;;;;;17.75;69.76;96901.22;4912786;29;20116;-82
2022/09/01 05:06:58;;;;;;;14.82;12.30;;;;;;;17.77;69.59;96899.19;4912052;29;20124;-85
2022/09/01 05:09:27;;;;;;;15.90;12.48;;;;;;;17.76;69.07;96901.00;4912341;29;20518;-87
2022/09/01 05:11:56;;;;;;;13.82;11.80;;;;;;;17.76;69.47;96897.59;4911779;29;20052;-85
2022/09/01 05:14:24;;;;;;;14.82;11.63;;;;;;;17.77;69.10;96899.97;4911911;29;20139;-80
2022/09/01 05:16:58;;;;;;;10.73;9.63;;;;;;;17.80;69.61;96893.44;4912292;29;20479;-81
2022/09/01 05:19:27;;;;;;;12.35;10.05;;;;;;;17.84;69.16;96895.47;4911588;29;20060;-82
2022/09/01 05:21:57;;;;;;;12.35;10.30;;;;;;;17.86;68.62;96897.88;4910846;29;20060;-85
2022/09/01 05:24:28;;;;;;;13.10;10.27;;;;;;;17.87;68.57;96904.78;4910626;29;20049;-81
2022/09/01 05:26:56;;;;;;;12.55;9.68;;;;;;;17.90;70.25;96899.06;4909972;29;20075;-82
2022/09/01 05:29:26;;;;;;;16.25;10.55;;;;;;;17.93;69.09;96898.63;4910312;29;20575;-85
2022/09/01 05:31:55;;;;;;;11.75;10.32;;;;;;;17.95;68.89;96896.59;4910598;29;20112;-85
2022/09/01 05:34:26;;;;;;;11.75;10.40;;;;;;;17.96;68.45;96900.81;4912401;29;20516;-88
2022/09/01 05:36:56;;;;;;;13.43;9.48;;;;;;;17.98;68.44;96900.59;4915228;29;20064;-85
2022/09/01 05:39:25;;;;;;;11.65;10.38;;;;;;;18.00;68.75;96902.00;4914824;29;20063;-86
2022/09/01 05:41:53;;;;;;;11.98;9.80;;;;;;;18.00;68.23;96907.28;4914461;29;20060;-84
2022/09/01 05:44:22;;;;;;;10.20;9.05;;;;;;;18.03;69.12;96909.44;4914367;29;20495;-81
2022/09/01 05:46:52;;;;;;;11.18;9.75;;;;;;;18.06;68.69;96911.66;4914293;29;20451;-88
2022/09/01 05:49:20;;;;;;;11.35;9.80;;;;;;;18.08;68.13;96908.78;4914596;29;20055;-90
2022/09/01 05:51:51;;;;;;;11.95;10.07;;;;;;;18.05;67.89;96910.03;4913993;29;20068;-88
2022/09/01 05:54:21;;;;;;;11.90;9.75;;;;;;;18.03;67.91;96909.44;4913762;29;20068;-85
2022/09/01 05:56:52;;;;;;;13.25;10.15;;;;;;;18.01;67.85;96908.06;4912302;29;20079;-88
2022/09/01 05:59:22;;;;;;;13.43;9.93;;;;;;;18.00;68.07;96909.09;4912607;29;20503;-86
2022/09/01 06:01:52;;;;;;;11.18;9.88;;;;;;;17.97;67.60;96915.63;4912132;29;20048;-84
2022/09/01 06:04:21;;;;;;;10.43;9.27;;;;;;;17.96;67.91;96916.66;4910746;29;20131;-84
2022/09/01 06:06:52;;;;;;;10.18;9.02;;;;;;;17.99;67.92;96923.31;4910398;29;20060;-87
2022/09/01 06:09:40;;;;;;;9.80;8.80;;;;;;;18.01;67.78;96906.22;4910203;29;20059;-80
2022/09/01 06:12:16;;;;;;;9.85;8.85;;;;;;;17.99;66.97;96910.91;4909365;29;20056;-81
2022/09/01 06:14:44;;;;;;;9.57;8.60;;;;;;;18.01;67.34;96910.72;4909742;29;20092;-80
2022/09/01 06:17:15;;;;;;;10.07;8.15;;;;;;;18.02;67.51;96909.69;4909690;29;20112;-85
2022/09/01 06:19:43;;;;;;;10.30;8.82;;;;;;;18.05;67.43;96912.69;4908330;29;20070;-80
2022/09/01 06:22:12;;;;;;;11.40;9.60;;;;;;;18.04;67.16;96913.72;4907974;29;20060;-80
2022/09/01 06:24:40;;;;;;;8.50;7.57;;;;;;;18.06;67.26;96909.03;4907672;29;20056;-80
2022/09/01 06:27:12;;;;;;;9.82;8.82;;;;;;;18.08;67.01;96912.25;4907319;29;20072;-85
2022/09/01 06:29:40;;;;;;;9.27;8.35;;;;;;;18.10;66.64;96906.72;4907591;29;20088;-81
2022/09/01 06:32:09;;;;;;;9.13;8.20;;;;;;;18.16;67.54;96912.97;4905354;29;20602;-83
2022/09/01 06:34:39;;;;;;;9.80;8.80;;;;;;;18.21;67.03;96916.53;4906548;29;20072;-88
2022/09/01 06:37:09;;;;;;;10.00;8.27;;;;;;;18.25;66.64;96906.34;4906290;29;20080;-83
2022/09/01 06:39:39;;;;;;;8.52;7.65;;;;;;;18.28;66.35;96905.94;4905770;29;20060;-83
2022/09/01 06:42:08;;;;;;;8.23;7.43;;;;;;;18.30;66.37;96904.66;4905444;29;20486;-83
2022/09/01 06:44:37;;;;;;;7.93;7.13;;;;;;;18.36;66.50;96897.66;4905005;29;20499;-84
2022/09/01 06:47:08;;;;;;;;;;;;;;;18.48;66.94;96910.94;4915202;29;20056;-88
2022/09/01 06:49:38;;;;;;;7.03;6.38;;;;;;;18.55;64.77;96908.19;4912756;29;19963;-86
2022/09/01 06:52:06;;;;;;;6.75;6.05;;;;;;;18.61;64.22;96899.38;4912143;29;20052;-86
2022/09/01 06:54:38;;;;;;;7.53;6.55;;;;;;;18.69;64.22;96912.25;4911872;29;20080;-89
2022/09/01 06:57:07;;;;;;;7.55;6.63;;;;;;;18.77;63.92;96919.88;4911202;29;20072;-88
2022/09/01 06:59:55;;;;;;;7.55;6.65;;;;;;;18.89;63.17;96914.63;4909043;29;20139;-84
2022/09/01 07:02:23;;;;;;;7.15;6.45;;;;;;;18.99;63.21;96917.53;4907822;29;20515;-85
2022/09/01 07:05:16;;;;;;;6.68;6.00;;;;;;;19.13;62.04;96926.03;4907199;29;20063;-86
2022/09/01 07:08:06;;;;;;;6.72;6.03;;;;;;;19.22;61.92;96919.41;4906012;29;20564;-82
2022/09/01 07:10:34;;;;;;;6.40;5.80;;;;;;;19.28;61.94;96926.41;4906095;29;20131;-88
2022/09/01 07:13:24;;;;;;;5.45;4.70;;;;;;;19.35;61.14;96927.13;4905568;29;20074;-83
2022/09/01 07:15:54;;;;;;;4.93;4.53;;;;;;;19.43;60.36;96922.50;4905296;29;20049;-83
2022/09/01 07:18:41;;;;;;;4.72;4.32;;;;;;;19.51;60.22;96930.13;4904102;29;20136;-87
2022/09/01 07:21:25;;;;;;;4.65;4.25;;;;;;;19.54;59.58;96929.63;4903416;29;20511;-80
2022/09/01 07:24:17;;;;;;;5.60;4.60;;;;;;;19.49;59.77;96932.97;4902937;29;20132;-83
2022/09/01 07:26:51;;;;;;;5.78;5.28;;;;;;;19.44;59.90;96934.69;4902867;29;20045;-83
2022/09/01 07:29:22;;;;;;;6.40;5.10;;;;;;;19.40;59.76;96934.38;4902393;29;20071;-83
2022/09/01 07:31:51;;;;;;;5.60;4.68;;;;;;;19.40;60.19;96928.28;4901558;29;20135;-87
2022/09/01 07:34:39;;;;;;;8.10;5.60;;;;;;;19.39;60.19;96929.28;4900971;29;20054;-84
2022/09/01 07:37:08;;;;;;;8.27;5.38;;;;;;;19.39;60.85;96931.94;4901155;29;20055;-86
2022/09/01 07:39:57;;;;;;;7.05;5.80;;;;;;;19.42;60.50;96932.28;4900823;29;20403;-80
2022/09/01 07:42:46;;;;;;;6.10;5.50;;;;;;;19.45;60.45;96941.59;4900983;29;20088;-81
2022/09/01 07:45:31;;;;;;;6.85;6.15;;;;;;;19.42;60.27;96942.88;4909522;29;20430;-87
2022/09/01 07:48:05;;;;;;;7.63;6.43;;;;;;;19.42;60.14;96950.03;4909681;29;20052;-87
2022/09/01 07:50:34;;;;;;;7.65;6.35;;;;;;;19.43;60.21;96954.25;4905260;29;20056;-83
2022/09/01 07:53:25;;;;;;;6.57;5.93;;;;;;;19.43;60.14;96943.69;4905453;29;20503;-81
2022/09/01 07:55:54;;;;;;;8.77;6.57;;;;;;;19.44;59.96;96945.28;4905335;29;20487;-85
2022/09/01 07:58:25;;;;;;;7.40;6.25;;;;;;;19.46;59.85;96948.50;4904918;29;20056;-83
2022/09/01 08:01:01;;;;;;;7.25;6.55;;;;;;;19.45;59.63;96960.94;4903435;29;20089;-81
2022/09/01 08:03:30;;;;;;;7.15;6.45;;;;;;;19.43;59.61;96955.06;4904048;29;20079;-82
2022/09/01 08:06:05;;;;;;;6.53;5.93;;;;;;;19.40;59.53;96957.38;4903166;29;20044;-81
2022/09/01 08:08:33;;;;;;;8.02;6.65;;;;;;;19.37;59.81;96961.25;4903208;29;20092;-85
2022/09/01 08:11:03;;;;;;;6.97;6.30;;;;;;;19.37;60.60;96966.56;4902157;29;20108;-81
2022/09/01 08:13:31;;;;;;;7.68;6.38;;;;;;;19.34;60.93;96962.53;4901575;29;20075;-81
2022/09/01 08:16:09;;;;;;;7.15;6.55;;;;;;;19.34;61.10;96967.81;4900001;29;20107;-81
2022/09/01 08:18:46;;;;;;;10.68;7.60;;;;;;;19.33;61.44;96968.88;4901969;29;20108;-83
2022/09/01 08:21:20;;;;;;;8.90;8.10;;;;;;;19.32;61.13;96969.09;4904328;29;20056;-81
2022/09/01 08:23:48;;;;;;;10.65;7.75;;;;;;;19.32;61.01;96964.59;4905020;29;20056;-81
2022/09/01 08:26:18;;;;;;;7.57;6.63;;;;;;;19.32;61.20;96972.53;4906019;29;20492;-81
2022/09/01 08:28:46;;;;;;;7.43;6.72;;;;;;;19.33;61.05;96979.44;4906347;29;20124;-84
2022/09/01 08:31:25;;;;;;;7.28;6.55;;;;;;;19.35;61.17;96974.72;4908442;29;20488;-86
2022/09/01 08:33:57;;;;;;;7.43;6.55;;;;;;;19.39;61.03;96979.56;4907787;29;20059;-83
2022/09/01 08:36:25;;;;;;;7.68;6.82;;;;;;;19.42;60.88;96973.81;4908510;29;20079;-84
2022/09/01 08:38:53;;;;;;;8.88;6.50;;;;;;;19.46;60.88;96977.59;4907915;29;20060;-81
2022/09/01 08:41:42;;;;;;;6.55;6.05;;;;;;;19.53;61.16;96980.97;4907370;29;20175;-82
2022/09/01 08:44:21;;;;;;;7.40;6.65;;;;;;;19.59;59.90;96973.94;4909237;29;20052;-86
2022/09/01 08:46:57;;;;;;;8.30;6.80;;;;;;;19.71;60.01;96986.16;4910384;29;20392;-87
2022/09/01 08:49:26;;;;;;;6.10;5.32;;;;;;;19.80;59.58;96977.88;4910621;29;20083;-89
2022/09/01 08:52:01;;;;;;;6.15;5.53;;;;;;;19.82;58.98;96978.47;4911114;29;20057;-87
2022/09/01 08:54:36;;;;;;;6.15;5.13;;;;;;;19.79;58.71;96984.19;4910754;29;20124;-88
2022/09/01 08:57:06;;;;;;;5.30;4.80;;;;;;;19.73;58.95;96978.00;4911497;29;20056;-84
2022/09/01 08:59:34;;;;;;;5.57;5.03;;;;;;;19.69;58.79;96979.47;4909674;29;20574;-84
2022/09/01 09:02:17;;;;;;;6.03;5.43;;;;;;;19.68;59.23;96989.25;4908246;29;20431;-85
2022/09/01 09:04:56;;;;;;;5.68;5.18;;;;;;;19.72;59.25;96987.78;4909574;29;20056;-83
2022/09/01 09:07:39;;;;;;;5.72;5.18;;;;;;;19.84;58.33;96992.28;4909957;29;20157;-82
2022/09/01 09:10:13;;;;;;;6.10;4.80;;;;;;;19.92;58.34;96989.28;4908166;29;20108;-83
2022/09/01 09:12:54;;;;;;;5.20;4.70;;;;;;;20.01;58.88;96990.53;4908099;29;20064;-81
2022/09/01 09:15:33;;;;;;;5.20;4.70;;;;;;;20.04;58.82;96990.06;4908181;29;20064;-86
2022/09/01 09:18:13;;;;;;;6.20;4.80;;;;;;;20.11;58.62;96993.38;4907886;29;20056;-88
2022/09/01 09:21:11;;;;;;;4.28;3.95;;;;;;;20.25;58.54;96980.69;4907400;29;20052;-85
2022/09/01 09:23:44;;;;;;;4.95;4.55;;;;;;;20.37;57.51;96986.75;4907571;29;20072;-81
2022/09/01 09:26:12;;;;;;;4.65;4.15;;;;;;;20.66;57.80;96983.34;4906302;29;20111;-82
2022/09/01 09:28:48;;;;;;;4.50;4.10;;;;;;;20.95;56.33;96987.63;4907229;29;20057;-83
2022/09/01 09:31:31;;;;;;;4.38;3.97;;;;;;;21.14;54.89;96984.75;4905830;29;20056;-84
2022/09/01 09:34:01;;;;;;;4.82;4.43;;;;;;;21.23;53.70;96983.31;4906277;29;20110;-87
2022/09/01 09:36:31;;;;;;;4.82;4.22;;;;;;;21.19;53.16;96988.28;4906307;29;20086;-83
2022/09/01 09:39:11;;;;;;;5.25;4.75;;;;;;;21.14;53.70;96990.88;4906590;29;20064;-84
2022/09/01 09:41:41;;;;;;;4.65;4.25;;;;;;;21.13;54.15;96988.44;4907823;29;20131;-83
2022/09/01 09:44:21;;;;;;;4.82;4.43;;;;;;;21.05;54.25;96980.88;4909713;29;20056;-85
2022/09/01 09:46:50;;;;;;;6.35;4.30;;;;;;;20.98;54.64;96986.34;4906286;29;20079;-85
2022/09/01 09:49:23;;;;;;;5.10;4.70;;;;;;;20.88;54.85;96989.63;4906492;29;20463;-88
2022/09/01 09:52:14;;;;;;;5.43;4.93;;;;;;;20.81;55.14;96981.00;4906921;29;20056;-85
2022/09/01 09:54:59;;;;;;;5.80;4.80;;;;;;;20.77;55.53;96990.44;4907015;29;20056;-83
2022/09/01 09:57:29;;;;;;;5.90;5.13;;;;;;;20.73;55.59;96986.69;4906588;29;20076;-87
2022/09/01 10:00:01;;;;;;;5.65;5.22;;;;;;;20.68;55.90;96982.06;4905682;29;20052;-83
2022/09/01 10:02:32;;;;;;;6.00;5.40;;;;;;;20.69;56.11;96985.56;4902713;29;20057;-82
2022/09/01 10:05:25;;;;;;;4.72;4.32;;;;;;;20.77;56.41;96983.31;4902500;29;20053;-81
2022/09/01 10:07:54;;;;;;;;;;;;;;;20.84;56.13;96979.69;4902798;29;20049;-82
2022/09/01 10:10:30;;;;;;;5.05;4.65;;;;;;;20.79;55.47;96977.75;4904298;29;19923;-85
2022/09/01 10:12:58;;;;;;;4.78;4.38;;;;;;;20.77;56.61;96979.84;4905990;29;20109;-84
2022/09/01 10:15:32;;;;;;;5.28;4.88;;;;;;;20.77;56.04;96988.63;4907301;29;20563;-86
2022/09/01 10:18:05;;;;;;;5.55;4.95;;;;;;;20.77;55.70;96977.19;4905441;29;20056;-85
2022/09/01 10:20:56;;;;;;;4.75;4.28;;;;;;;20.78;55.60;96982.28;4900915;29;20140;-82
2022/09/01 10:23:26;;;;;;;8.38;4.75;;;;;;;20.76;55.46;96981.69;4900686;29;20507;-82
2022/09/01 10:26:04;;;;;;;4.95;4.22;;;;;;;20.66;55.11;96988.66;4901582;29;20049;-82
2022/09/01 10:28:46;;;;;;;4.10;3.72;;;;;;;20.58;55.92;96993.31;4902335;29;20499;-83
2022/09/01 10:31:18;;;;;;;5.97;4.55;;;;;;;20.53;56.33;96990.53;4910711;29;20052;-89
2022/09/01 10:33:46;;;;;;;4.35;3.95;;;;;;;20.45;56.69;96988.25;4903232;29;20052;-83
2022/09/01 10:36:16;;;;;;;4.57;4.18;;;;;;;20.39;56.58;96997.13;4901988;29;20112;-82
2022/09/01 10:38:44;;;;;;;12.75;5.05;;;;;;;20.30;57.03;96993.25;4901737;29;20468;-83
2022/09/01 10:41:49;;;;;;;6.82;4.25;;;;;;;20.24;56.89;96991.53;4901258;29;20056;-82
2022/09/01 10:44:32;;;;;;;6.38;4.68;;;;;;;20.15;57.33;96989.22;4901101;29;20053;-83
2022/09/01 10:47:02;;;;;;;6.55;4.63;;;;;;;20.12;57.49;96983.63;4900604;29;20064;-82
2022/09/01 10:49:57;;;;;;;4.40;3.97;;;;;;;20.08;57.75;96980.63;4901338;29;20056;-85
2022/09/01 10:52:56;;;;;;;4.97;3.90;;;;;;;20.09;57.62;96984.06;4900938;29;20064;-83
2022/09/01 10:55:27;;;;;;;13.57;4.55;;;;;;;20.11;57.04;96977.47;4900992;29;20081;-80
2022/09/01 10:58:12;;;;;;;10.30;4.80;;;;;;;20.18;57.15;96987.94;4900825;29;20053;-82
2022/09/01 11:01:00;;;;;;;29.10;7.38;;;;;;;20.27;57.60;96973.31;4900076;29;20080;-82
2022/09/01 11:03:54;;;;;;;8.75;4.45;;;;;;;20.37;56.56;96970.84;4900079;29;20575;-82
2022/09/01 11:06:44;;;;;;;4.82;4.18;;;;;;;20.45;56.41;96974.19;4899783;29;20071;-82
2022/09/01 11:09:38;;;;;;;4.70;3.60;;;;;;;20.52;55.75;96973.00;4899568;29;20519;-80
2022/09/01 11:12:18;;;;;;;3.83;3.42;;;;;;;20.60;54.99;96973.69;4900426;29;20420;-81
2022/09/01 11:14:58;;;;;;;3.53;3.22;;;;;;;20.70;54.89;96981.84;4900372;29;20072;-81
2022/09/01 11:17:29;;;;;;;4.97;3.35;;;;;;;20.83;54.94;96972.81;4899452;29;20507;-87
2022/09/01 11:20:01;;;;;;;4.30;3.75;;;;;;;20.97;54.81;96977.59;4898713;29;20132;-82
2022/09/01 11:22:33;;;;;;;5.13;3.53;;;;;;;21.09;54.16;96979.34;4899386;29;20048;-81
2022/09/01 11:25:33;;;;;;;4.00;3.70;;;;;;;21.18;53.49;96980.56;4899442;29;20052;-83
2022/09/01 11:28:44;;;;;;;5.32;4.00;;;;;;;21.22;52.62;96980.91;4900496;29;20048;-82
2022/09/01 11:31:31;;;;;;;4.47;4.18;;;;;;;21.19;52.69;96974.22;4904315;29;20638;-83
2022/09/01 11:34:18;;;;;;;5.53;3.92;;;;;;;21.12;53.01;96970.91;4905935;29;20052;-86
2022/09/01 11:36:52;;;;;;;4.40;4.00;;;;;;;21.17;52.97;96979.78;4905334;29;20056;-84
2022/09/01 11:39:30;;;;;;;3.97;3.58;;;;;;;21.23;53.31;96969.22;4905667;29;20479;-85
2022/09/01 11:42:03;;;;;;;3.80;3.50;;;;;;;21.32;52.55;96970.47;4906585;29;20064;-83
2022/09/01 11:44:36;;;;;;;3.30;3.00;;;;;;;21.46;52.13;96968.31;4907000;29;20045;-85
2022/09/01 11:47:06;;;;;;;3.78;3.33;;;;;;;21.56;52.16;96965.81;4906869;29;20056;-87
2022/09/01 11:49:48;;;;;;;3.63;3.33;;;;;;;21.67;51.84;96967.56;4907377;29;20053;-87
2022/09/01 11:52:18;;;;;;;3.75;3.45;;;;;;;21.81;50.59;96960.84;4906805;29;20060;-84
2022/09/01 11:54:46;;;;;;;3.95;3.22;;;;;;;22.01;50.23;96962.19;4906585;29;20085;-86
2022/09/01 11:57:21;;;;;;;4.78;3.63;;;;;;;22.19;49.05;96959.25;4906296;29;20083;-86
2022/09/01 11:59:49;;;;;;;4.70;3.10;;;;;;;22.36;50.20;96948.56;4908211;29;20499;-86
2022/09/01 12:02:18;;;;;;;4.82;3.55;;;;;;;22.63;49.63;96958.44;4909008;29;20104;-82
2022/09/01 12:04:46;;;;;;;3.90;3.60;;;;;;;22.78;48.52;96952.44;4909088;29;20048;-86
2022/09/01 12:07:30;;;;;;;3.80;3.50;;;;;;;22.88;49.10;96941.91;4909355;29;20045;-87
2022/09/01 12:09:57;;;;;;;3.88;3.58;;;;;;;23.09;47.87;96936.78;4910786;29;20045;-84
2022/09/01 12:12:30;;;;;;;4.07;3.70;;;;;;;23.13;46.38;96937.91;4909438;29;20052;-85
2022/09/01 12:14:59;;;;;;;4.18;3.78;;;;;;;23.18;46.92;96944.06;4910135;29;20431;-84